createdAt,value
2022-10-23T00:01:44.103Z,70.22
2022-10-23T00:04:17.844Z,70.22
2022-10-23T00:06:45.164Z,70.20
2022-10-23T00:09:13.639Z,70.29
2022-10-23T00:11:41.397Z,70.27
2022-10-23T00:14:08.465Z,70.16
2022-10-23T00:16:35.286Z,69.94
2022-10-23T00:19:02.050Z,70.27
2022-10-23T00:21:28.880Z,70.20
2022-10-23T00:23:55.450Z,70.16
2022-10-23T00:26:22.008Z,70.31
2022-10-23T00:28:50.857Z,70.31
2022-10-23T00:31:18.295Z,70.37
2022-10-23T00:33:46.028Z,70.32
2022-10-23T00:36:14.280Z,70.25
2022-10-23T00:38:40.819Z,70.26
2022-10-23T00:41:09.353Z,70.14
2022-10-23T00:43:58.556Z,70.12
2022-10-23T00:46:25.238Z,70.38
2022-10-23T00:48:51.816Z,70.24
2022-10-23T00:51:18.651Z,70.20
2022-10-23T00:53:47.992Z,70.26
2022-10-23T00:56:16.691Z,70.26
2022-10-23T00:58:43.230Z,70.23
2022-10-23T01:01:18.681Z,70.26
2022-10-23T01:03:45.375Z,70.20
2022-10-23T01:06:13.869Z,70.26
2022-10-23T01:08:40.267Z,70.34
2022-10-23T01:11:12.629Z,70.38
2022-10-23T01:13:51.283Z,70.25
2022-10-23T01:16:35.876Z,70.41
2022-10-23T01:19:08.564Z,70.24
2022-10-23T01:21:45.378Z,70.19
2022-10-23T01:24:27.470Z,70.22
2022-10-23T01:27:12.649Z,70.23
2022-10-23T01:29:49.827Z,70.22
2022-10-23T01:32:36.528Z,70.28
2022-10-23T01:35:13.603Z,70.28
2022-10-23T01:38:01.279Z,70.17
2022-10-23T01:40:51.035Z,70.25
2022-10-23T01:43:20.775Z,70.23
2022-10-23T01:45:54.154Z,70.23
2022-10-23T01:48:27.081Z,70.21
2022-10-23T01:50:56.048Z,70.35
2022-10-23T01:53:23.085Z,70.16
2022-10-23T01:55:49.910Z,70.21
2022-10-23T01:58:16.585Z,70.13
2022-10-23T02:00:45.215Z,70.32
2022-10-23T02:03:12.864Z,70.20
2022-10-23T02:05:39.463Z,70.12
2022-10-23T02:08:06.554Z,70.37
2022-10-23T02:10:42.421Z,70.18
2022-10-23T02:13:12.965Z,70.14
2022-10-23T02:15:54.182Z,70.23
2022-10-23T02:18:29.583Z,70.01
2022-10-23T02:20:59.504Z,70.18
2022-10-23T02:23:33.317Z,70.31
2022-10-23T02:26:11.447Z,70.32
2022-10-23T02:28:47.307Z,70.33
2022-10-23T02:31:16.839Z,70.38
2022-10-23T02:33:44.886Z,70.11
2022-10-23T02:36:12.097Z,70.09
2022-10-23T02:38:41.499Z,70.47
2022-10-23T02:41:35.987Z,70.47
2022-10-23T02:44:12.005Z,70.47
2022-10-23T02:46:38.455Z,70.17
2022-10-23T02:49:11.864Z,70.31
2022-10-23T02:51:38.449Z,70.43
2022-10-23T02:54:15.515Z,70.45
2022-10-23T02:56:52.448Z,70.43
2022-10-23T02:59:37.521Z,70.32
2022-10-23T03:02:15.440Z,70.34
2022-10-23T03:04:43.021Z,70.23
2022-10-23T03:07:15.468Z,70.34
2022-10-23T03:09:41.937Z,70.47
2022-10-23T03:12:08.428Z,70.35
2022-10-23T03:14:34.901Z,70.36
2022-10-23T03:17:01.341Z,70.52
2022-10-23T03:19:27.850Z,70.36
2022-10-23T03:21:54.739Z,70.23
2022-10-23T03:24:21.249Z,70.16
2022-10-23T03:26:47.736Z,70.30
2022-10-23T03:29:14.235Z,70.41
2022-10-23T03:31:40.727Z,70.11
2022-10-23T03:34:11.126Z,70.26
2022-10-23T03:36:37.879Z,70.53
2022-10-23T03:39:04.577Z,70.33
2022-10-23T03:41:31.473Z,70.48
2022-10-23T03:43:58.021Z,70.28
2022-10-23T03:46:24.585Z,70.40
2022-10-23T03:48:51.081Z,70.42
2022-10-23T03:51:17.535Z,70.29
2022-10-23T03:53:44.076Z,70.27
2022-10-23T03:56:10.501Z,70.37
2022-10-23T03:58:36.976Z,70.37
2022-10-23T04:01:03.564Z,70.20
2022-10-23T04:03:30.083Z,70.19
2022-10-23T04:05:56.672Z,70.38
2022-10-23T04:08:23.347Z,70.19
2022-10-23T04:10:49.811Z,70.27
2022-10-23T04:13:16.328Z,70.46
2022-10-23T04:15:49.390Z,70.44
2022-10-23T04:18:16.172Z,70.46
2022-10-23T04:20:42.647Z,70.39
2022-10-23T04:23:09.133Z,70.25
2022-10-23T04:25:35.723Z,70.28
2022-10-23T04:28:02.201Z,70.04
2022-10-23T04:30:28.663Z,70.23
2022-10-23T04:32:55.121Z,70.25
2022-10-23T04:35:21.657Z,70.21
2022-10-23T04:37:48.416Z,70.33
2022-10-23T04:40:15.096Z,70.21
2022-10-23T04:42:41.896Z,70.15
2022-10-23T04:45:08.931Z,70.37
2022-10-23T04:47:35.466Z,70.35
2022-10-23T04:50:01.957Z,70.22
2022-10-23T04:52:28.602Z,70.28
2022-10-23T04:54:55.139Z,70.28
2022-10-23T04:57:21.599Z,70.15
2022-10-23T04:59:48.071Z,70.23
2022-10-23T05:02:14.566Z,70.04
2022-10-23T05:04:41.050Z,70.15
2022-10-23T05:07:07.538Z,70.24
2022-10-23T05:09:34.106Z,70.28
2022-10-23T05:12:00.554Z,70.03
2022-10-23T05:14:27.067Z,69.96
2022-10-23T05:17:25.756Z,69.98
2022-10-23T05:19:54.778Z,70.07
2022-10-23T05:22:24.623Z,69.94
2022-10-23T05:24:51.169Z,70.01
2022-10-23T05:27:17.861Z,69.91
2022-10-23T05:29:44.375Z,70.06
2022-10-23T05:32:13.847Z,70.14
2022-10-23T05:34:40.940Z,69.91
2022-10-23T05:37:09.651Z,70.17
2022-10-23T05:39:36.312Z,69.93
2022-10-23T05:42:02.811Z,69.91
2022-10-23T05:44:29.285Z,69.95
2022-10-23T05:46:55.817Z,69.73
2022-10-23T05:49:25.026Z,69.90
2022-10-23T05:51:51.685Z,70.08
2022-10-23T05:54:18.170Z,69.93
2022-10-23T05:56:44.657Z,69.99
2022-10-23T05:59:11.111Z,70.17
2022-10-23T06:01:37.770Z,70.08
2022-10-23T06:04:05.448Z,70.16
2022-10-23T06:06:31.943Z,69.93
2022-10-23T06:08:58.748Z,70.19
2022-10-23T06:11:25.305Z,70.12
2022-10-23T06:13:51.898Z,70.11
2022-10-23T06:16:20.594Z,70.09
2022-10-23T06:18:47.492Z,69.98
2022-10-23T06:21:14.643Z,70.03
2022-10-23T06:23:42.486Z,69.96
2022-10-23T06:26:11.248Z,69.58
2022-10-23T06:28:38.082Z,69.79
2022-10-23T06:31:05.926Z,69.72
2022-10-23T06:33:32.545Z,69.72
2022-10-23T06:35:59.030Z,69.77
2022-10-23T06:38:25.684Z,69.78
2022-10-23T06:40:53.614Z,69.60
2022-10-23T06:43:20.196Z,69.68
2022-10-23T06:45:46.827Z,69.72
2022-10-23T06:48:13.533Z,69.67
2022-10-23T06:50:40.111Z,69.57
2022-10-23T06:53:06.892Z,69.63
2022-10-23T06:55:34.273Z,69.65
2022-10-23T06:58:00.785Z,69.66
2022-10-23T07:00:27.337Z,69.83
2022-10-23T07:02:54.416Z,69.67
2022-10-23T07:05:20.986Z,69.68
2022-10-23T07:07:47.468Z,69.47
2022-10-23T07:12:47.840Z,69.41
2022-10-23T07:15:15.452Z,69.52
2022-10-23T07:17:41.986Z,69.47
2022-10-23T07:20:09.056Z,69.39
2022-10-23T07:22:35.534Z,69.34
2022-10-23T07:25:01.997Z,69.44
2022-10-23T07:27:28.538Z,69.30
2022-10-23T07:29:55.016Z,69.23
2022-10-23T07:32:23.865Z,69.24
2022-10-23T07:34:50.382Z,69.21
2022-10-23T07:37:16.945Z,69.28
2022-10-23T07:39:43.414Z,69.40
2022-10-23T07:42:10.300Z,69.28
2022-10-23T07:44:36.745Z,69.14
2022-10-23T07:47:03.270Z,68.98
2022-10-23T07:49:29.763Z,69.04
2022-10-23T07:51:58.765Z,69.00
2022-10-23T07:54:25.302Z,68.83
2022-10-23T07:56:51.823Z,68.62
2022-10-23T07:59:18.340Z,68.61
2022-10-23T08:01:47.145Z,68.67
2022-10-23T08:04:14.265Z,68.52
2022-10-23T08:06:40.716Z,68.62
2022-10-23T08:09:07.330Z,68.46
2022-10-23T08:11:35.768Z,68.50
2022-10-23T08:14:04.660Z,68.37
2022-10-23T08:16:31.989Z,68.40
2022-10-23T08:18:58.527Z,68.17
2022-10-23T08:21:25.021Z,68.19
2022-10-23T08:23:59.924Z,68.14
2022-10-23T08:26:29.364Z,68.09
2022-10-23T08:28:56.521Z,67.95
2022-10-23T08:31:23.096Z,68.10
2022-10-23T08:36:21.934Z,68.19
2022-10-23T08:38:49.170Z,68.08
2022-10-23T08:41:24.944Z,68.13
2022-10-23T08:43:57.009Z,67.82
2022-10-23T08:46:28.734Z,68.09
2022-10-23T08:49:44.788Z,68.01
2022-10-23T08:52:34.651Z,67.70
2022-10-23T08:55:16.405Z,67.65
2022-10-23T08:58:11.251Z,67.33
2022-10-23T09:00:37.930Z,67.19
2022-10-23T09:03:05.219Z,67.28
2022-10-23T09:05:50.000Z,67.29
2022-10-23T09:08:43.757Z,67.55
2022-10-23T09:11:33.059Z,67.65
2022-10-23T09:14:02.984Z,67.51
2022-10-23T09:16:35.514Z,67.60
2022-10-23T09:19:02.302Z,67.52
2022-10-23T09:21:29.626Z,67.75
2022-10-23T09:23:56.749Z,67.37
2022-10-23T09:26:23.386Z,67.86
2022-10-23T09:28:51.804Z,67.63
2022-10-23T09:31:19.518Z,67.88
2022-10-23T09:33:58.022Z,68.04
2022-10-23T09:36:25.980Z,68.55
2022-10-23T09:38:54.100Z,68.64
2022-10-23T09:41:22.043Z,68.94
2022-10-23T09:44:11.426Z,69.20
2022-10-23T09:46:46.408Z,69.07
2022-10-23T09:49:24.380Z,69.36
2022-10-23T09:51:56.384Z,69.71
2022-10-23T09:54:24.290Z,69.96
2022-10-23T09:56:51.849Z,70.31
2022-10-23T09:59:25.620Z,70.55
2022-10-23T10:02:00.787Z,70.54
2022-10-23T10:04:39.483Z,70.68
2022-10-23T10:07:18.261Z,70.85
2022-10-23T10:09:44.921Z,70.90
2022-10-23T10:12:29.686Z,71.30
2022-10-23T10:15:17.407Z,71.25
2022-10-23T10:17:56.357Z,71.62
2022-10-23T10:20:38.151Z,71.83
2022-10-23T10:23:31.106Z,71.77
2022-10-23T10:26:09.774Z,71.78
2022-10-23T10:28:52.895Z,71.72
2022-10-23T10:31:43.716Z,71.97
2022-10-23T10:34:14.753Z,72.22
2022-10-23T10:36:48.970Z,72.14
2022-10-23T10:39:35.544Z,72.35
2022-10-23T10:42:11.127Z,72.12
2022-10-23T10:44:54.022Z,71.85
2022-10-23T10:47:47.746Z,71.91
2022-10-23T10:50:22.940Z,72.26
2022-10-23T10:53:08.887Z,72.13
2022-10-23T10:55:41.217Z,72.43
2022-10-23T10:58:31.968Z,72.28
2022-10-23T11:01:00.802Z,72.42
2022-10-23T11:03:52.468Z,72.47
2022-10-23T11:06:21.456Z,72.61
2022-10-23T11:08:57.521Z,72.88
2022-10-23T11:11:36.508Z,72.68
2022-10-23T11:14:03.437Z,72.72
2022-10-23T11:16:36.093Z,73.18
2022-10-23T11:19:14.049Z,73.22
2022-10-23T11:21:44.948Z,73.03
2022-10-23T11:24:26.656Z,73.27
2022-10-23T11:26:53.202Z,73.23
2022-10-23T11:29:57.808Z,72.92
2022-10-23T11:35:12.579Z,73.05
2022-10-23T11:37:39.074Z,73.43
2022-10-23T11:40:08.653Z,73.40
2022-10-23T11:42:41.716Z,73.36
2022-10-23T11:45:36.866Z,73.16
2022-10-23T11:48:13.546Z,73.02
2022-10-23T11:50:49.494Z,73.10
2022-10-23T11:53:31.124Z,73.33
2022-10-23T11:55:57.508Z,73.28
2022-10-23T11:58:32.266Z,73.35
2022-10-23T12:01:18.155Z,73.40
2022-10-23T12:03:53.031Z,73.28
2022-10-23T12:06:31.382Z,73.56
2022-10-23T12:09:24.855Z,73.51
2022-10-23T12:12:09.661Z,73.20
2022-10-23T12:14:39.831Z,73.26
2022-10-23T12:17:36.762Z,73.48
2022-10-23T12:20:09.036Z,73.32
2022-10-23T12:23:14.022Z,73.34
2022-10-23T12:25:46.960Z,73.42
2022-10-23T12:28:31.728Z,73.56
2022-10-23T12:31:01.426Z,73.40
2022-10-23T12:33:35.286Z,73.60
2022-10-23T12:36:35.015Z,73.39
2022-10-23T12:39:02.228Z,73.69
2022-10-23T12:41:29.897Z,73.75
2022-10-23T12:43:59.276Z,74.12
2022-10-23T12:46:35.125Z,73.91
2022-10-23T12:49:04.615Z,73.69
2022-10-23T12:51:35.283Z,73.69
2022-10-23T12:54:02.927Z,74.14
2022-10-23T12:56:35.657Z,74.39
2022-10-23T12:59:02.595Z,74.07
2022-10-23T13:01:34.220Z,73.98
2022-10-23T13:04:26.517Z,73.93
2022-10-23T13:06:53.312Z,74.51
2022-10-23T13:09:36.198Z,74.56
2022-10-23T13:12:05.144Z,74.68
2022-10-23T13:14:40.638Z,74.79
2022-10-23T13:17:11.682Z,74.42
2022-10-23T13:19:38.702Z,74.98
2022-10-23T13:22:16.652Z,74.65
2022-10-23T13:24:43.524Z,74.88
2022-10-23T13:27:30.970Z,74.81
2022-10-23T13:29:57.521Z,74.93
2022-10-23T13:32:25.802Z,75.14
2022-10-23T13:35:04.355Z,75.28
2022-10-23T13:37:45.676Z,75.49
2022-10-23T13:40:27.096Z,75.32
2022-10-23T13:42:55.427Z,75.20
2022-10-23T13:45:24.670Z,74.99
2022-10-23T13:47:51.194Z,75.02
2022-10-23T13:50:18.367Z,75.19
2022-10-23T13:52:44.963Z,75.16
2022-10-23T13:55:23.553Z,75.40
2022-10-23T13:57:50.060Z,75.16
2022-10-23T14:00:17.209Z,75.26
2022-10-23T14:02:44.271Z,75.09
2022-10-23T14:05:10.972Z,75.14
2022-10-23T14:07:37.492Z,75.36
2022-10-23T14:10:04.386Z,75.41
2022-10-23T14:12:30.947Z,75.52
2022-10-23T14:14:57.423Z,75.71
2022-10-23T14:17:23.893Z,75.54
2022-10-23T14:19:50.493Z,75.73
2022-10-23T14:22:18.025Z,75.80
2022-10-23T14:24:44.787Z,75.87
2022-10-23T14:27:12.248Z,75.61
2022-10-23T14:29:40.531Z,75.89
2022-10-23T14:32:07.054Z,75.72
2022-10-23T14:34:33.669Z,75.59
2022-10-23T14:37:15.419Z,75.63
2022-10-23T14:39:44.191Z,75.75
2022-10-23T14:42:14.407Z,75.73
2022-10-23T14:44:40.894Z,75.58
2022-10-23T14:47:07.451Z,75.55
2022-10-23T14:49:35.606Z,75.65
2022-10-23T14:52:02.267Z,75.59
2022-10-23T14:54:29.385Z,76.13
2022-10-23T14:56:55.847Z,75.95
2022-10-23T14:59:22.289Z,76.07
2022-10-23T15:01:49.140Z,75.94
2022-10-23T15:04:15.833Z,76.12
2022-10-23T15:06:43.246Z,76.24
2022-10-23T15:09:10.151Z,76.29
2022-10-23T15:11:36.672Z,76.45
2022-10-23T15:14:03.151Z,76.40
2022-10-23T15:16:29.696Z,76.61
2022-10-23T15:18:56.237Z,76.53
2022-10-23T15:21:22.840Z,76.35
2022-10-23T15:23:49.952Z,76.52
2022-10-23T15:26:21.801Z,76.51
2022-10-23T15:28:53.554Z,76.75
2022-10-23T15:31:29.168Z,76.79
2022-10-23T15:33:59.412Z,76.91
2022-10-23T15:36:26.450Z,76.93
2022-10-23T15:38:52.981Z,76.75
2022-10-23T15:41:27.708Z,76.92
2022-10-23T15:43:54.295Z,76.74
2022-10-23T15:46:20.788Z,76.62
2022-10-23T15:48:47.374Z,76.53
2022-10-23T15:51:13.847Z,76.63
2022-10-23T15:53:40.329Z,76.61
2022-10-23T15:56:06.876Z,76.64
2022-10-23T15:58:33.350Z,76.85
2022-10-23T16:01:06.416Z,76.96
2022-10-23T16:03:34.294Z,77.10
2022-10-23T16:06:04.399Z,76.89
2022-10-23T16:08:30.948Z,76.95
2022-10-23T16:10:57.463Z,77.09
2022-10-23T16:13:23.916Z,77.12
2022-10-23T16:15:50.593Z,77.50
2022-10-23T16:18:18.055Z,77.50
2022-10-23T16:20:44.561Z,77.62
2022-10-23T16:23:11.046Z,77.37
2022-10-23T16:25:38.287Z,77.58
2022-10-23T16:28:05.851Z,77.45
2022-10-23T16:30:32.420Z,77.43
2022-10-23T16:32:58.956Z,77.32
2022-10-23T16:35:25.467Z,77.49
2022-10-23T16:37:52.020Z,77.46
2022-10-23T16:40:18.602Z,77.53
2022-10-23T16:42:45.369Z,77.60
2022-10-23T16:45:12.214Z,77.78
2022-10-23T16:47:38.740Z,77.81
2022-10-23T16:50:05.608Z,78.12
2022-10-23T16:52:33.259Z,77.88
2022-10-23T16:54:59.759Z,77.78
2022-10-23T16:57:29.151Z,77.92
2022-10-23T16:59:55.806Z,77.87
2022-10-23T17:02:22.433Z,77.85
2022-10-23T17:04:49.044Z,77.47
2022-10-23T17:07:15.562Z,77.80
2022-10-23T17:09:44.893Z,77.58
2022-10-23T17:12:11.355Z,77.67
2022-10-23T17:14:38.748Z,77.79
2022-10-23T17:17:06.829Z,77.77
2022-10-23T17:19:44.602Z,77.89
2022-10-23T17:22:13.143Z,77.58
2022-10-23T17:24:40.118Z,77.77
2022-10-23T17:27:06.776Z,78.02
2022-10-23T17:29:33.544Z,77.99
2022-10-23T17:32:00.284Z,77.92
2022-10-23T17:34:26.821Z,78.02
2022-10-23T17:36:54.846Z,78.05
2022-10-23T17:39:26.012Z,78.16
2022-10-23T17:41:53.066Z,78.05
2022-10-23T17:44:19.941Z,78.11
2022-10-23T17:46:52.193Z,77.99
2022-10-23T17:49:18.667Z,78.15
2022-10-23T17:51:45.195Z,78.31
2022-10-23T17:54:12.347Z,78.41
2022-10-23T17:56:40.677Z,78.46
2022-10-23T17:59:13.870Z,78.17
2022-10-23T18:01:40.749Z,78.48
2022-10-23T18:04:08.079Z,78.40
2022-10-23T18:06:40.807Z,78.34
2022-10-23T18:09:07.895Z,78.40
2022-10-23T18:11:37.156Z,78.51
2022-10-23T18:14:05.241Z,78.43
2022-10-23T18:16:31.930Z,78.44
2022-10-23T18:19:02.075Z,78.33
2022-10-23T18:21:29.056Z,78.39
2022-10-23T18:23:55.687Z,78.34
2022-10-23T18:26:24.824Z,78.50
2022-10-23T18:28:53.648Z,78.46
2022-10-23T18:31:20.725Z,78.39
2022-10-23T18:33:47.615Z,78.62
2022-10-23T18:36:25.861Z,78.60
2022-10-23T18:38:52.771Z,78.58
2022-10-23T18:41:20.033Z,78.43
2022-10-23T18:43:46.651Z,78.51
2022-10-23T18:46:14.281Z,78.52
2022-10-23T18:48:41.393Z,78.63
2022-10-23T18:51:17.131Z,78.52
2022-10-23T18:53:46.697Z,78.75
2022-10-23T18:56:22.299Z,78.81
2022-10-23T18:58:53.860Z,78.61
2022-10-23T19:01:20.553Z,78.60
2022-10-23T19:03:47.334Z,78.74
2022-10-23T19:06:14.138Z,78.62
2022-10-23T19:08:42.552Z,78.83
2022-10-23T19:11:10.138Z,78.62
2022-10-23T19:13:39.149Z,78.79
2022-10-23T19:16:12.280Z,78.74
2022-10-23T19:18:40.979Z,79.17
2022-10-23T19:21:07.725Z,79.15
2022-10-23T19:23:36.448Z,79.37
2022-10-23T19:26:09.068Z,79.10
2022-10-23T19:28:37.841Z,79.08
2022-10-23T19:31:04.655Z,79.23
2022-10-23T19:33:32.541Z,79.14
2022-10-23T19:36:02.297Z,79.20
2022-10-23T19:38:31.931Z,79.13
2022-10-23T19:40:58.464Z,79.05
2022-10-23T19:43:24.979Z,79.24
2022-10-23T19:45:51.500Z,79.08
2022-10-23T19:48:18.145Z,79.27
2022-10-23T19:50:44.712Z,79.03
2022-10-23T19:53:11.245Z,79.17
2022-10-23T19:55:37.732Z,79.20
2022-10-23T19:58:04.254Z,78.93
2022-10-23T20:00:30.714Z,78.97
2022-10-23T20:02:57.200Z,78.70
2022-10-23T20:05:23.779Z,78.66
2022-10-23T20:07:51.348Z,78.81
2022-10-23T20:10:17.909Z,78.88
2022-10-23T20:12:51.502Z,78.89
2022-10-23T20:15:26.521Z,78.69
2022-10-23T20:17:53.590Z,78.75
2022-10-23T20:20:20.662Z,78.77
2022-10-23T20:22:48.495Z,78.68
2022-10-23T20:25:16.560Z,78.85
2022-10-23T20:27:43.022Z,78.72
2022-10-23T20:30:10.140Z,78.86
2022-10-23T20:32:36.662Z,78.64
2022-10-23T20:35:03.843Z,78.59
2022-10-23T20:37:30.468Z,78.76
2022-10-23T20:39:57.188Z,78.54
2022-10-23T20:42:23.669Z,78.65
2022-10-23T20:44:50.154Z,78.58
2022-10-23T20:47:16.890Z,78.77
2022-10-23T20:49:43.351Z,78.50
2022-10-23T20:52:09.793Z,78.65
2022-10-23T20:54:38.298Z,78.76
2022-10-23T20:57:04.783Z,78.79
2022-10-23T20:59:31.343Z,78.58
2022-10-23T21:01:58.093Z,78.63
2022-10-23T21:04:27.444Z,78.63
2022-10-23T21:07:11.546Z,78.94
2022-10-23T21:09:39.377Z,78.59
2022-10-23T21:12:06.670Z,78.79
2022-10-23T21:14:33.570Z,78.70
2022-10-23T21:17:00.102Z,78.89
2022-10-23T21:19:26.649Z,78.74
2022-10-23T21:21:54.213Z,79.04
2022-10-23T21:24:20.734Z,79.15
2022-10-23T21:26:47.515Z,78.95
2022-10-23T21:29:18.891Z,79.14
2022-10-23T21:31:57.654Z,79.02
2022-10-23T21:34:25.072Z,79.26
2022-10-23T21:39:38.476Z,79.14
2022-10-23T21:42:05.230Z,79.24
2022-10-23T21:44:31.707Z,79.17
2022-10-23T21:46:58.167Z,79.22
2022-10-23T21:49:24.636Z,79.23
2022-10-23T21:51:51.354Z,78.95
2022-10-23T21:54:17.824Z,78.88
2022-10-23T21:56:46.371Z,79.08
2022-10-23T21:59:14.805Z,79.13
2022-10-23T22:01:43.275Z,78.94
2022-10-23T22:04:11.395Z,78.84
2022-10-23T22:06:38.477Z,78.81
2022-10-23T22:09:05.925Z,78.84
2022-10-23T22:11:32.371Z,78.73
2022-10-23T22:13:59.277Z,78.84
2022-10-23T22:16:25.795Z,78.57
2022-10-23T22:18:52.445Z,78.50
2022-10-23T22:21:23.764Z,78.54
2022-10-23T22:23:51.067Z,78.53
2022-10-23T22:26:32.735Z,78.44
2022-10-23T22:29:00.105Z,78.48
2022-10-23T22:31:29.144Z,78.35
2022-10-23T22:33:56.679Z,78.25
2022-10-23T22:36:23.390Z,78.36
2022-10-23T22:38:50.122Z,78.08
2022-10-23T22:41:17.197Z,78.35
2022-10-23T22:43:43.694Z,78.12
2022-10-23T22:46:11.775Z,78.10
2022-10-23T22:48:39.287Z,78.31
2022-10-23T22:51:08.879Z,78.14
2022-10-23T22:53:35.806Z,78.12
2022-10-23T22:56:06.588Z,78.25
2022-10-23T22:58:33.092Z,78.28
2022-10-23T23:01:14.006Z,78.03
2022-10-23T23:03:40.639Z,78.13
2022-10-23T23:06:08.445Z,78.26
2022-10-23T23:08:36.320Z,77.92
2022-10-23T23:11:03.857Z,78.07
2022-10-23T23:13:30.403Z,77.90
2022-10-23T23:15:57.284Z,77.87
2022-10-23T23:18:24.559Z,78.07
2022-10-23T23:20:51.115Z,77.78
2022-10-23T23:23:18.120Z,77.96
2022-10-23T23:25:49.571Z,77.89
2022-10-23T23:28:18.345Z,77.68
2022-10-23T23:33:12.640Z,77.69
2022-10-23T23:35:40.700Z,77.69
2022-10-23T23:38:07.302Z,77.45
2022-10-23T23:40:33.882Z,77.58
2022-10-23T23:43:00.420Z,77.47
2022-10-23T23:45:27.107Z,77.57
2022-10-23T23:47:53.615Z,77.54
2022-10-23T23:50:20.546Z,77.46
2022-10-23T23:52:47.255Z,77.51
2022-10-23T23:55:13.820Z,77.17
2022-10-23T23:57:40.308Z,77.35
